sensor_id;sensor_type;location;lat;lon;timestamp;pressure;altitude;pressure_sealevel;temperature;humidity
7309;BME280;3695;53.330;9.876;2022-07-09T00:00:33;126210.97;;;14.34;57.60
7309;BME280;3695;53.330;9.876;2022-07-09T00:03:00;126136.84;;;14.34;57.64
7309;BME280;3695;53.330;9.876;2022-07-09T00:05:26;126582.78;;;14.45;57.60
7309;BME280;3695;53.330;9.876;2022-07-09T00:07:53;126899.34;;;14.55;57.57
7309;BME280;3695;53.330;9.876;2022-07-09T00:10:20;126966.06;;;14.58;57.61
7309;BME280;3695;53.330;9.876;2022-07-09T00:12:46;126511.34;;;14.45;57.77
7309;BME280;3695;53.330;9.876;2022-07-09T00:15:13;126334.38;;;14.41;57.87
7309;BME280;3695;53.330;9.876;2022-07-09T00:17:40;125714.19;;;14.28;57.98
7309;BME280;3695;53.330;9.876;2022-07-09T00:20:08;125951.50;;;14.36;57.86
7309;BME280;3695;53.330;9.876;2022-07-09T00:22:35;125800.78;;;14.34;57.86
7309;BME280;3695;53.330;9.876;2022-07-09T00:25:02;125107.38;;;14.15;58.06
7309;BME280;3695;53.330;9.876;2022-07-09T00:27:28;125318.81;;;14.24;57.94
7309;BME280;3695;53.330;9.876;2022-07-09T00:29:55;125498.03;;;14.31;57.86
7309;BME280;3695;53.330;9.876;2022-07-09T00:32:21;125251.59;;;14.26;57.92
7309;BME280;3695;53.330;9.876;2022-07-09T00:34:49;124891.25;;;14.18;57.99
7309;BME280;3695;53.330;9.876;2022-07-09T00:37:15;124808.94;;;14.18;58.00
7309;BME280;3695;53.330;9.876;2022-07-09T00:39:42;125107.81;;;14.25;58.01
7309;BME280;3695;53.330;9.876;2022-07-09T00:42:10;123831.00;;;13.96;58.30
7309;BME280;3695;53.330;9.876;2022-07-09T00:44:37;124558.16;;;14.18;58.02
7309;BME280;3695;53.330;9.876;2022-07-09T00:47:05;124314.34;;;14.11;58.14
7309;BME280;3695;53.330;9.876;2022-07-09T00:49:36;123951.59;;;14.04;58.21
7309;BME280;3695;53.330;9.876;2022-07-09T00:52:06;124551.34;;;14.20;58.07
7309;BME280;3695;53.330;9.876;2022-07-09T00:54:34;124559.56;;;14.20;58.09
7309;BME280;3695;53.330;9.876;2022-07-09T00:57:02;124394.22;;;14.17;58.18
7309;BME280;3695;53.330;9.876;2022-07-09T00:59:30;124134.97;;;14.11;58.23
7309;BME280;3695;53.330;9.876;2022-07-09T01:01:57;123828.47;;;14.06;58.29
7309;BME280;3695;53.330;9.876;2022-07-09T01:04:23;123181.56;;;13.90;58.50
7309;BME280;3695;53.330;9.876;2022-07-09T01:06:50;121919.19;;;13.72;58.56
7309;BME280;3695;53.330;9.876;2022-07-09T01:09:18;122248.28;;;13.83;58.42
7309;BME280;3695;53.330;9.876;2022-07-09T01:11:46;122260.25;;;13.84;58.41
7309;BME280;3695;53.330;9.876;2022-07-09T01:14:13;121930.16;;;13.72;58.56
7309;BME280;3695;53.330;9.876;2022-07-09T01:16:39;122027.91;;;13.77;58.24
7309;BME280;3695;53.330;9.876;2022-07-09T01:19:06;120909.16;;;13.56;58.39
7309;BME280;3695;53.330;9.876;2022-07-09T01:21:35;121163.66;;;13.66;58.22
7309;BME280;3695;53.330;9.876;2022-07-09T01:24:02;121441.44;;;13.72;58.28
7309;BME280;3695;53.330;9.876;2022-07-09T01:26:29;121931.34;;;13.84;58.26
7309;BME280;3695;53.330;9.876;2022-07-09T01:28:55;121661.44;;;13.76;58.45
7309;BME280;3695;53.330;9.876;2022-07-09T01:31:22;122730.78;;;14.03;58.34
7309;BME280;3695;53.330;9.876;2022-07-09T01:33:48;122298.31;;;13.92;58.55
7309;BME280;3695;53.330;9.876;2022-07-09T01:36:14;122020.34;;;13.86;58.65
7309;BME280;3695;53.330;9.876;2022-07-09T01:38:43;121101.66;;;13.66;58.86
7309;BME280;3695;53.330;9.876;2022-07-09T01:41:10;121433.47;;;13.73;58.84
7309;BME280;3695;53.330;9.876;2022-07-09T01:43:36;121633.38;;;13.83;58.70
7309;BME280;3695;53.330;9.876;2022-07-09T01:46:03;121847.66;;;13.86;58.81
7309;BME280;3695;53.330;9.876;2022-07-09T01:48:29;120719.94;;;13.60;59.13
7309;BME280;3695;53.330;9.876;2022-07-09T01:50:56;120914.91;;;13.69;59.03
7309;BME280;3695;53.330;9.876;2022-07-09T01:53:24;121101.75;;;13.77;58.91
7309;BME280;3695;53.330;9.876;2022-07-09T01:55:51;121087.28;;;13.73;59.12
7309;BME280;3695;53.330;9.876;2022-07-09T01:58:18;120849.69;;;13.72;59.00
7309;BME280;3695;53.330;9.876;2022-07-09T02:00:45;121087.81;;;13.81;58.63
7309;BME280;3695;53.330;9.876;2022-07-09T02:03:11;121826.91;;;13.98;58.65
7309;BME280;3695;53.330;9.876;2022-07-09T02:05:38;121153.56;;;13.81;58.94
7309;BME280;3695;53.330;9.876;2022-07-09T02:08:04;121854.88;;;14.01;58.80
7309;BME280;3695;53.330;9.876;2022-07-09T02:10:31;121694.81;;;13.95;59.05
7309;BME280;3695;53.330;9.876;2022-07-09T02:12:58;122459.88;;;14.15;58.91
7309;BME280;3695;53.330;9.876;2022-07-09T02:15:25;121701.81;;;13.98;59.17
7309;BME280;3695;53.330;9.876;2022-07-09T02:17:51;122553.00;;;14.20;59.07
7309;BME280;3695;53.330;9.876;2022-07-09T02:20:18;123225.03;;;14.33;59.18
7309;BME280;3695;53.330;9.876;2022-07-09T02:22:44;123238.16;;;14.30;59.55
7309;BME280;3695;53.330;9.876;2022-07-09T02:25:11;122482.97;;;14.12;59.97
7309;BME280;3695;53.330;9.876;2022-07-09T02:27:37;122055.09;;;14.06;59.87
7309;BME280;3695;53.330;9.876;2022-07-09T02:30:06;122097.22;;;14.07;59.98
7309;BME280;3695;53.330;9.876;2022-07-09T02:32:33;122553.59;;;14.23;59.88
7309;BME280;3695;53.330;9.876;2022-07-09T02:35:09;122795.06;;;14.18;58.74
7309;BME280;3695;53.330;9.876;2022-07-09T02:37:36;122546.63;;;14.15;59.32
7309;BME280;3695;53.330;9.876;2022-07-09T02:40:03;122687.97;;;14.23;59.53
7309;BME280;3695;53.330;9.876;2022-07-09T02:42:29;122943.84;;;14.31;59.67
7309;BME280;3695;53.330;9.876;2022-07-09T02:44:56;123355.16;;;14.43;59.79
7309;BME280;3695;53.330;9.876;2022-07-09T02:47:22;123146.06;;;14.36;60.17
7309;BME280;3695;53.330;9.876;2022-07-09T02:49:49;123009.59;;;14.35;60.36
7309;BME280;3695;53.330;9.876;2022-07-09T02:52:17;122641.50;;;14.28;60.54
7309;BME280;3695;53.330;9.876;2022-07-09T02:54:43;123076.63;;;14.41;60.52
7309;BME280;3695;53.330;9.876;2022-07-09T02:57:09;122232.41;;;14.21;60.87
7309;BME280;3695;53.330;9.876;2022-07-09T02:59:37;121774.56;;;14.17;60.95
7309;BME280;3695;53.330;9.876;2022-07-09T03:02:04;122411.19;;;14.34;60.74
7309;BME280;3695;53.330;9.876;2022-07-09T03:04:30;122545.19;;;14.36;60.87
7309;BME280;3695;53.330;9.876;2022-07-09T03:06:57;122735.69;;;14.42;60.90
7309;BME280;3695;53.330;9.876;2022-07-09T03:09:25;122549.22;;;14.38;61.07
7309;BME280;3695;53.330;9.876;2022-07-09T03:11:52;121920.56;;;14.26;61.32
7309;BME280;3695;53.330;9.876;2022-07-09T03:14:18;121009.63;;;14.06;61.69
7309;BME280;3695;53.330;9.876;2022-07-09T03:16:44;121500.22;;;14.21;61.52
7309;BME280;3695;53.330;9.876;2022-07-09T03:19:11;121401.50;;;14.21;61.63
7309;BME280;3695;53.330;9.876;2022-07-09T03:21:37;121309.75;;;14.19;61.76
7309;BME280;3695;53.330;9.876;2022-07-09T03:24:04;121477.78;;;14.24;61.83
7309;BME280;3695;53.330;9.876;2022-07-09T03:26:34;121983.81;;;14.37;61.82
7309;BME280;3695;53.330;9.876;2022-07-09T03:29:01;121603.44;;;14.26;62.16
7309;BME280;3695;53.330;9.876;2022-07-09T03:31:27;121579.28;;;14.29;62.21
7309;BME280;3695;53.330;9.876;2022-07-09T03:33:53;121724.72;;;14.35;62.24
7309;BME280;3695;53.330;9.876;2022-07-09T03:36:20;121902.81;;;14.39;62.34
7309;BME280;3695;53.330;9.876;2022-07-09T03:38:46;121788.59;;;14.39;62.40
7309;BME280;3695;53.330;9.876;2022-07-09T03:41:13;121433.47;;;14.32;62.59
7309;BME280;3695;53.330;9.876;2022-07-09T03:43:40;121654.94;;;14.38;62.63
7309;BME280;3695;53.330;9.876;2022-07-09T03:46:07;121424.25;;;14.31;62.85
7309;BME280;3695;53.330;9.876;2022-07-09T03:48:34;121242.50;;;14.32;62.84
7309;BME280;3695;53.330;9.876;2022-07-09T03:51:00;121490.38;;;14.38;62.83
7309;BME280;3695;53.330;9.876;2022-07-09T03:53:27;121173.94;;;14.32;62.88
7309;BME280;3695;53.330;9.876;2022-07-09T03:55:53;120954.09;;;14.29;62.88
7309;BME280;3695;53.330;9.876;2022-07-09T03:58:19;121293.41;;;14.41;62.61
7309;BME280;3695;53.330;9.876;2022-07-09T04:00:47;121006.16;;;14.35;62.65
7309;BME280;3695;53.330;9.876;2022-07-09T04:03:14;121374.75;;;14.46;62.49
7309;BME280;3695;53.330;9.876;2022-07-09T04:05:40;121176.22;;;14.40;62.74
7309;BME280;3695;53.330;9.876;2022-07-09T04:08:09;120432.69;;;14.26;62.81
7309;BME280;3695;53.330;9.876;2022-07-09T04:10:36;120026.84;;;14.19;62.71
7309;BME280;3695;53.330;9.876;2022-07-09T04:13:02;119899.25;;;14.21;62.44
7309;BME280;3695;53.330;9.876;2022-07-09T04:15:29;120216.56;;;14.29;62.26
7309;BME280;3695;53.330;9.876;2022-07-09T04:17:59;120157.50;;;14.31;62.12
7309;BME280;3695;53.330;9.876;2022-07-09T04:20:25;120138.28;;;14.31;62.12
7309;BME280;3695;53.330;9.876;2022-07-09T04:22:52;120008.25;;;14.29;62.12
7309;BME280;3695;53.330;9.876;2022-07-09T04:25:18;119427.41;;;14.18;62.20
7309;BME280;3695;53.330;9.876;2022-07-09T04:27:46;118945.13;;;14.11;62.11
7309;BME280;3695;53.330;9.876;2022-07-09T04:30:13;119344.09;;;14.23;61.72
7309;BME280;3695;53.330;9.876;2022-07-09T04:32:39;120023.75;;;14.41;61.47
7309;BME280;3695;53.330;9.876;2022-07-09T04:35:08;120154.63;;;14.42;61.59
7309;BME280;3695;53.330;9.876;2022-07-09T04:37:34;119693.66;;;14.34;61.74
7309;BME280;3695;53.330;9.876;2022-07-09T04:40:01;119731.91;;;14.39;61.49
7309;BME280;3695;53.330;9.876;2022-07-09T04:42:28;119868.44;;;14.42;61.50
7309;BME280;3695;53.330;9.876;2022-07-09T04:44:55;120019.19;;;14.47;61.39
7309;BME280;3695;53.330;9.876;2022-07-09T04:47:23;120634.59;;;14.66;61.22
7309;BME280;3695;53.330;9.876;2022-07-09T04:49:49;120612.13;;;14.63;61.53
7309;BME280;3695;53.330;9.876;2022-07-09T04:52:17;120789.69;;;14.70;61.48
7309;BME280;3695;53.330;9.876;2022-07-09T04:54:45;120613.63;;;14.67;61.59
7309;BME280;3695;53.330;9.876;2022-07-09T04:57:12;120103.03;;;14.58;61.66
7309;BME280;3695;53.330;9.876;2022-07-09T04:59:38;120382.22;;;14.66;61.48
7309;BME280;3695;53.330;9.876;2022-07-09T05:02:05;121119.91;;;14.87;61.30
7309;BME280;3695;53.330;9.876;2022-07-09T05:04:31;121238.19;;;14.89;61.55
7309;BME280;3695;53.330;9.876;2022-07-09T05:06:58;121217.97;;;14.88;61.71
7309;BME280;3695;53.330;9.876;2022-07-09T05:09:25;121836.75;;;15.05;61.61
7309;BME280;3695;53.330;9.876;2022-07-09T05:11:52;121216.72;;;14.92;62.01
7309;BME280;3695;53.330;9.876;2022-07-09T05:14:19;120542.66;;;14.81;62.01
7309;BME280;3695;53.330;9.876;2022-07-09T05:16:47;120373.53;;;14.82;61.72
7309;BME280;3695;53.330;9.876;2022-07-09T05:19:13;120838.44;;;14.95;61.59
7309;BME280;3695;53.330;9.876;2022-07-09T05:21:40;121006.34;;;14.98;61.78
7309;BME280;3695;53.330;9.876;2022-07-09T05:24:07;120606.44;;;14.91;62.04
7309;BME280;3695;53.330;9.876;2022-07-09T05:26:35;120917.25;;;15.01;61.82
7309;BME280;3695;53.330;9.876;2022-07-09T05:29:02;120716.38;;;14.98;61.95
7309;BME280;3695;53.330;9.876;2022-07-09T05:31:28;120803.19;;;15.03;61.78
7309;BME280;3695;53.330;9.876;2022-07-09T05:33:55;120841.34;;;15.07;61.62
7309;BME280;3695;53.330;9.876;2022-07-09T05:36:22;120979.63;;;15.14;61.58
7309;BME280;3695;53.330;9.876;2022-07-09T05:38:48;121246.44;;;15.22;61.53
7309;BME280;3695;53.330;9.876;2022-07-09T05:41:14;120818.34;;;15.12;61.86
7309;BME280;3695;53.330;9.876;2022-07-09T05:43:42;121159.81;;;15.24;61.78
7309;BME280;3695;53.330;9.876;2022-07-09T05:46:09;120446.50;;;15.10;61.90
7309;BME280;3695;53.330;9.876;2022-07-09T05:48:35;119952.53;;;15.05;61.74
7309;BME280;3695;53.330;9.876;2022-07-09T05:51:01;120637.06;;;15.24;61.47
7309;BME280;3695;53.330;9.876;2022-07-09T05:53:28;121748.72;;;15.53;61.26
7309;BME280;3695;53.330;9.876;2022-07-09T05:55:55;121199.47;;;15.43;61.53
7309;BME280;3695;53.330;9.876;2022-07-09T05:58:21;121566.88;;;15.55;61.60
7309;BME280;3695;53.330;9.876;2022-07-09T06:00:49;121526.91;;;15.57;61.87
7309;BME280;3695;53.330;9.876;2022-07-09T06:03:15;121263.63;;;15.55;62.08
7309;BME280;3695;53.330;9.876;2022-07-09T06:05:42;121298.13;;;15.58;62.20
7309;BME280;3695;53.330;9.876;2022-07-09T06:08:08;120294.88;;;15.37;62.51
7309;BME280;3695;53.330;9.876;2022-07-09T06:10:35;119807.66;;;15.35;62.04
7309;BME280;3695;53.330;9.876;2022-07-09T06:13:01;120391.25;;;15.51;61.83
7309;BME280;3695;53.330;9.876;2022-07-09T06:15:28;119869.47;;;15.38;62.06
7309;BME280;3695;53.330;9.876;2022-07-09T06:17:56;120063.19;;;15.49;61.67
7309;BME280;3695;53.330;9.876;2022-07-09T06:20:22;120809.72;;;15.68;61.49
7309;BME280;3695;53.330;9.876;2022-07-09T06:22:49;121123.69;;;15.79;61.58
7309;BME280;3695;53.330;9.876;2022-07-09T06:25:15;120368.41;;;15.63;61.93
7309;BME280;3695;53.330;9.876;2022-07-09T06:27:42;120006.84;;;15.58;61.95
7309;BME280;3695;53.330;9.876;2022-07-09T06:30:08;120711.41;;;15.79;61.75
7309;BME280;3695;53.330;9.876;2022-07-09T06:32:35;120933.69;;;15.88;61.94
7309;BME280;3695;53.330;9.876;2022-07-09T06:35:03;121475.47;;;16.06;61.94
7309;BME280;3695;53.330;9.876;2022-07-09T06:37:30;120952.34;;;15.96;62.42
7309;BME280;3695;53.330;9.876;2022-07-09T06:39:56;120982.06;;;15.99;62.62
7309;BME280;3695;53.330;9.876;2022-07-09T06:42:24;120641.25;;;15.93;62.93
7309;BME280;3695;53.330;9.876;2022-07-09T06:44:51;120509.06;;;15.92;62.84
7309;BME280;3695;53.330;9.876;2022-07-09T06:47:17;120719.91;;;15.98;62.72
7309;BME280;3695;53.330;9.876;2022-07-09T06:49:44;120534.25;;;15.95;63.21
7309;BME280;3695;53.330;9.876;2022-07-09T06:52:12;120715.09;;;16.03;62.76
7309;BME280;3695;53.330;9.876;2022-07-09T06:54:39;120927.00;;;16.10;63.52
7309;BME280;3695;53.330;9.876;2022-07-09T06:57:05;121630.53;;;16.29;64.16
7309;BME280;3695;53.330;9.876;2022-07-09T06:59:34;122107.63;;;16.41;64.75
7309;BME280;3695;53.330;9.876;2022-07-09T07:02:00;122374.91;;;16.48;65.80
7309;BME280;3695;53.330;9.876;2022-07-09T07:04:27;121629.03;;;16.31;66.41
7309;BME280;3695;53.330;9.876;2022-07-09T07:06:53;121217.91;;;16.24;66.73
7309;BME280;3695;53.330;9.876;2022-07-09T07:09:21;121324.69;;;16.26;66.91
7309;BME280;3695;53.330;9.876;2022-07-09T07:11:48;122079.38;;;16.48;66.72
7309;BME280;3695;53.330;9.876;2022-07-09T07:14:15;122641.09;;;16.59;66.65
7309;BME280;3695;53.330;9.876;2022-07-09T07:16:41;122362.69;;;16.52;67.12
7309;BME280;3695;53.330;9.876;2022-07-09T07:19:08;123317.19;;;16.76;66.83
7309;BME280;3695;53.330;9.876;2022-07-09T07:21:35;122453.06;;;16.54;67.54
7309;BME280;3695;53.330;9.876;2022-07-09T07:24:02;122916.88;;;16.66;66.04
7309;BME280;3695;53.330;9.876;2022-07-09T07:26:30;122614.31;;;16.58;63.73
7309;BME280;3695;53.330;9.876;2022-07-09T07:28:56;123632.28;;;16.86;63.56
7309;BME280;3695;53.330;9.876;2022-07-09T07:31:23;124023.75;;;16.92;64.14
7309;BME280;3695;53.330;9.876;2022-07-09T07:33:50;124119.06;;;16.95;64.90
7309;BME280;3695;53.330;9.876;2022-07-09T07:36:17;123523.94;;;16.82;65.99
7309;BME280;3695;53.330;9.876;2022-07-09T07:38:43;122400.31;;;16.57;66.68
7309;BME280;3695;53.330;9.876;2022-07-09T07:41:11;123340.81;;;16.80;66.67
7309;BME280;3695;53.330;9.876;2022-07-09T07:43:38;123057.72;;;16.73;67.05
7309;BME280;3695;53.330;9.876;2022-07-09T07:46:05;123997.69;;;16.99;66.97
7309;BME280;3695;53.330;9.876;2022-07-09T07:48:31;123689.41;;;16.87;68.18
7309;BME280;3695;53.330;9.876;2022-07-09T07:51:01;123817.78;;;16.91;69.27
7309;BME280;3695;53.330;9.876;2022-07-09T07:53:27;123966.19;;;16.93;69.78
7309;BME280;3695;53.330;9.876;2022-07-09T07:55:54;124333.91;;;17.04;70.08
7309;BME280;3695;53.330;9.876;2022-07-09T07:58:20;124587.38;;;17.12;70.23
7309;BME280;3695;53.330;9.876;2022-07-09T08:00:48;124601.88;;;17.11;70.87
7309;BME280;3695;53.330;9.876;2022-07-09T08:03:14;124954.75;;;17.15;71.46
7309;BME280;3695;53.330;9.876;2022-07-09T08:05:41;125657.97;;;17.31;71.79
7309;BME280;3695;53.330;9.876;2022-07-09T08:08:07;125493.13;;;17.30;72.38
7309;BME280;3695;53.330;9.876;2022-07-09T08:10:34;125217.00;;;17.20;73.20
7309;BME280;3695;53.330;9.876;2022-07-09T08:13:00;126183.63;;;17.45;73.43
7309;BME280;3695;53.330;9.876;2022-07-09T08:15:27;127782.44;;;17.83;73.46
7309;BME280;3695;53.330;9.876;2022-07-09T08:17:55;126766.38;;;17.47;75.66
7309;BME280;3695;53.330;9.876;2022-07-09T08:20:22;127832.03;;;17.79;75.39
7309;BME280;3695;53.330;9.876;2022-07-09T08:22:48;129838.47;;;18.28;75.18
7309;BME280;3695;53.330;9.876;2022-07-09T08:25:15;129282.72;;;18.05;76.79
7309;BME280;3695;53.330;9.876;2022-07-09T08:27:41;128563.06;;;17.85;78.46
7309;BME280;3695;53.330;9.876;2022-07-09T08:30:08;127916.25;;;17.77;79.11
7309;BME280;3695;53.330;9.876;2022-07-09T08:32:36;127494.72;;;17.67;79.54
7309;BME280;3695;53.330;9.876;2022-07-09T08:35:05;127138.19;;;17.54;80.21
7309;BME280;3695;53.330;9.876;2022-07-09T08:37:31;128138.59;;;17.85;79.41
7309;BME280;3695;53.330;9.876;2022-07-09T08:39:59;128118.84;;;17.84;79.60
7309;BME280;3695;53.330;9.876;2022-07-09T08:42:26;129652.66;;;18.19;78.88
7309;BME280;3695;53.330;9.876;2022-07-09T08:44:54;128538.19;;;17.85;80.41
7309;BME280;3695;53.330;9.876;2022-07-09T08:47:21;128754.75;;;17.92;80.22
7309;BME280;3695;53.330;9.876;2022-07-09T08:49:49;128558.34;;;17.88;80.11
7309;BME280;3695;53.330;9.876;2022-07-09T08:52:17;129011.59;;;18.01;79.75
7309;BME280;3695;53.330;9.876;2022-07-09T08:54:45;129545.00;;;18.10;79.95
7309;BME280;3695;53.330;9.876;2022-07-09T08:57:12;131109.44;;;18.49;79.44
7309;BME280;3695;53.330;9.876;2022-07-09T08:59:39;131317.56;;;18.50;80.14
7309;BME280;3695;53.330;9.876;2022-07-09T09:02:07;131192.91;;;18.41;81.40
7309;BME280;3695;53.330;9.876;2022-07-09T09:04:35;131951.06;;;18.63;80.82
7309;BME280;3695;53.330;9.876;2022-07-09T09:07:14;132474.06;;;18.76;81.10
7309;BME280;3695;53.330;9.876;2022-07-09T09:09:42;133518.69;;;19.03;81.14
7309;BME280;3695;53.330;9.876;2022-07-09T09:12:10;132731.22;;;18.74;83.71
7309;BME280;3695;53.330;9.876;2022-07-09T09:14:36;132752.13;;;18.79;84.01
7309;BME280;3695;53.330;9.876;2022-07-09T09:17:07;134473.53;;;19.16;84.00
7309;BME280;3695;53.330;9.876;2022-07-09T09:19:35;133407.16;;;18.82;88.67
7309;BME280;3695;53.330;9.876;2022-07-09T09:22:01;133561.66;;;18.88;88.76
7309;BME280;3695;53.330;9.876;2022-07-09T09:24:28;133013.75;;;18.77;89.95
7309;BME280;3695;53.330;9.876;2022-07-09T09:26:59;131963.75;;;18.51;90.19
7309;BME280;3695;53.330;9.876;2022-07-09T09:29:26;131289.16;;;18.42;87.44
7309;BME280;3695;53.330;9.876;2022-07-09T09:31:53;130313.41;;;18.24;83.82
7309;BME280;3695;53.330;9.876;2022-07-09T09:34:20;130494.06;;;18.37;79.75
7309;BME280;3695;53.330;9.876;2022-07-09T09:36:48;130374.47;;;18.38;76.95
7309;BME280;3695;53.330;9.876;2022-07-09T09:39:18;129268.91;;;18.05;76.36
7309;BME280;3695;53.330;9.876;2022-07-09T09:41:46;129437.78;;;18.09;75.01
7309;BME280;3695;53.330;9.876;2022-07-09T09:44:16;128641.91;;;17.87;74.73
7309;BME280;3695;53.330;9.876;2022-07-09T09:46:43;128587.06;;;17.88;73.46
7309;BME280;3695;53.330;9.876;2022-07-09T09:49:12;129117.47;;;18.04;72.19
7309;BME280;3695;53.330;9.876;2022-07-09T09:51:45;130030.59;;;18.25;71.37
7309;BME280;3695;53.330;9.876;2022-07-09T09:54:13;131887.47;;;18.72;70.47
7309;BME280;3695;53.330;9.876;2022-07-09T09:56:40;132827.09;;;18.91;70.91
7309;BME280;3695;53.330;9.876;2022-07-09T09:59:07;132925.16;;;18.94;70.96
7309;BME280;3695;53.330;9.876;2022-07-09T10:01:37;132305.44;;;18.80;70.95
7309;BME280;3695;53.330;9.876;2022-07-09T10:04:04;132181.47;;;18.76;70.57
7309;BME280;3695;53.330;9.876;2022-07-09T10:06:32;131892.28;;;18.64;70.76
7309;BME280;3695;53.330;9.876;2022-07-09T10:09:00;131995.38;;;18.63;70.84
7309;BME280;3695;53.330;9.876;2022-07-09T10:11:37;132461.78;;;18.78;70.51
7309;BME280;3695;53.330;9.876;2022-07-09T10:14:04;134299.25;;;19.25;69.96
7309;BME280;3695;53.330;9.876;2022-07-09T10:16:37;135491.38;;;19.45;71.22
7309;BME280;3695;53.330;9.876;2022-07-09T10:19:04;136984.53;;;19.81;73.16
7309;BME280;3695;53.330;9.876;2022-07-09T10:21:35;136538.38;;;19.58;77.95
7309;BME280;3695;53.330;9.876;2022-07-09T10:24:02;136102.03;;;19.40;84.41
7309;BME280;3695;53.330;9.876;2022-07-09T10:26:43;137316.31;;;19.81;87.65
7309;BME280;3695;53.330;9.876;2022-07-09T10:29:22;137442.00;;;19.83;93.90
7309;BME280;3695;53.330;9.876;2022-07-09T10:31:50;138611.81;;;20.18;98.08
7309;BME280;3695;53.330;9.876;2022-07-09T10:34:31;139147.00;;;20.27;100.00
7309;BME280;3695;53.330;9.876;2022-07-09T10:37:03;137884.78;;;19.90;100.00
7309;BME280;3695;53.330;9.876;2022-07-09T10:39:31;137064.06;;;19.64;100.00
7309;BME280;3695;53.330;9.876;2022-07-09T10:42:02;137264.34;;;19.72;100.00
7309;BME280;3695;53.330;9.876;2022-07-09T10:44:34;137419.50;;;19.75;100.00
7309;BME280;3695;53.330;9.876;2022-07-09T10:47:02;137229.88;;;19.71;100.00
7309;BME280;3695;53.330;9.876;2022-07-09T10:49:29;136230.91;;;19.43;100.00
7309;BME280;3695;53.330;9.876;2022-07-09T10:51:56;136153.19;;;19.43;100.00
7309;BME280;3695;53.330;9.876;2022-07-09T10:54:23;136060.44;;;19.42;100.00
7309;BME280;3695;53.330;9.876;2022-07-09T10:56:50;135697.78;;;19.35;100.00
7309;BME280;3695;53.330;9.876;2022-07-09T10:59:17;135526.22;;;19.29;100.00
7309;BME280;3695;53.330;9.876;2022-07-09T11:01:44;136683.50;;;19.64;100.00
7309;BME280;3695;53.330;9.876;2022-07-09T11:04:23;137424.28;;;19.85;100.00
7309;BME280;3695;53.330;9.876;2022-07-09T11:06:53;138725.84;;;20.18;100.00
7309;BME280;3695;53.330;9.876;2022-07-09T11:09:19;139722.66;;;20.45;100.00
7309;BME280;3695;53.330;9.876;2022-07-09T11:11:46;142217.22;;;21.15;100.00
7309;BME280;3695;53.330;9.876;2022-07-09T11:14:13;140589.97;;;20.57;100.00
7309;BME280;3695;53.330;9.876;2022-07-09T11:16:40;138623.75;;;19.91;100.00
7309;BME280;3695;53.330;9.876;2022-07-09T11:19:14;139640.00;;;20.26;100.00
7309;BME280;3695;53.330;9.876;2022-07-09T11:21:41;140601.50;;;20.62;100.00
7309;BME280;3695;53.330;9.876;2022-07-09T11:24:15;139686.69;;;20.33;100.00
7309;BME280;3695;53.330;9.876;2022-07-09T11:26:42;139401.84;;;20.26;100.00
7309;BME280;3695;53.330;9.876;2022-07-09T11:29:09;137621.84;;;19.76;100.00
7309;BME280;3695;53.330;9.876;2022-07-09T11:31:36;136630.56;;;19.57;100.00
7309;BME280;3695;53.330;9.876;2022-07-09T11:34:03;134983.41;;;19.22;100.00
7309;BME280;3695;53.330;9.876;2022-07-09T11:36:41;132116.53;;;18.52;100.00
7309;BME280;3695;53.330;9.876;2022-07-09T11:39:08;131956.66;;;18.61;100.00
7309;BME280;3695;53.330;9.876;2022-07-09T11:41:42;132331.47;;;18.80;85.16
7309;BME280;3695;53.330;9.876;2022-07-09T11:44:09;131302.66;;;18.59;76.95
7309;BME280;3695;53.330;9.876;2022-07-09T11:46:37;130837.25;;;18.46;73.54
7309;BME280;3695;53.330;9.876;2022-07-09T11:49:13;130462.56;;;18.36;71.92
7309;BME280;3695;53.330;9.876;2022-07-09T11:51:42;130147.84;;;18.26;70.35
7309;BME280;3695;53.330;9.876;2022-07-09T11:54:09;130985.81;;;18.52;69.03
7309;BME280;3695;53.330;9.876;2022-07-09T11:56:40;132315.81;;;18.83;68.47
7309;BME280;3695;53.330;9.876;2022-07-09T11:59:08;134507.78;;;19.34;68.82
7309;BME280;3695;53.330;9.876;2022-07-09T12:01:35;135895.81;;;19.65;71.63
7309;BME280;3695;53.330;9.876;2022-07-09T12:04:02;136797.97;;;19.87;75.62
7309;BME280;3695;53.330;9.876;2022-07-09T12:06:28;137428.66;;;19.98;82.92
7309;BME280;3695;53.330;9.876;2022-07-09T12:09:00;138546.28;;;20.32;91.44
7309;BME280;3695;53.330;9.876;2022-07-09T12:11:27;139489.28;;;20.61;100.00
7309;BME280;3695;53.330;9.876;2022-07-09T12:13:56;140763.00;;;20.95;100.00
7309;BME280;3695;53.330;9.876;2022-07-09T12:16:23;141057.88;;;21.02;100.00
7309;BME280;3695;53.330;9.876;2022-07-09T12:18:49;143285.50;;;21.67;100.00
7309;BME280;3695;53.330;9.876;2022-07-09T12:21:16;141276.25;;;20.94;100.00
7309;BME280;3695;53.330;9.876;2022-07-09T12:23:42;141223.53;;;20.90;100.00
7309;BME280;3695;53.330;9.876;2022-07-09T12:26:10;141411.41;;;20.97;100.00
7309;BME280;3695;53.330;9.876;2022-07-09T12:28:36;140695.66;;;20.69;100.00
7309;BME280;3695;53.330;9.876;2022-07-09T12:31:03;139142.47;;;20.16;100.00
7309;BME280;3695;53.330;9.876;2022-07-09T12:33:30;140514.69;;;20.63;100.00
7309;BME280;3695;53.330;9.876;2022-07-09T12:35:56;139607.13;;;20.33;100.00
7309;BME280;3695;53.330;9.876;2022-07-09T12:38:23;141667.63;;;21.00;100.00
7309;BME280;3695;53.330;9.876;2022-07-09T12:40:49;142681.50;;;21.31;100.00
7309;BME280;3695;53.330;9.876;2022-07-09T12:43:17;140983.22;;;20.77;100.00
7309;BME280;3695;53.330;9.876;2022-07-09T12:45:43;140310.34;;;20.56;100.00
7309;BME280;3695;53.330;9.876;2022-07-09T12:48:10;138486.91;;;20.00;100.00
7309;BME280;3695;53.330;9.876;2022-07-09T12:50:36;138595.59;;;20.05;100.00
7309;BME280;3695;53.330;9.876;2022-07-09T12:53:03;140882.03;;;20.72;100.00
7309;BME280;3695;53.330;9.876;2022-07-09T12:55:29;141611.16;;;20.93;100.00
7309;BME280;3695;53.330;9.876;2022-07-09T12:57:55;140328.19;;;20.57;100.00
7309;BME280;3695;53.330;9.876;2022-07-09T13:00:23;139987.09;;;20.45;100.00
7309;BME280;3695;53.330;9.876;2022-07-09T13:02:50;139666.25;;;20.35;100.00
7309;BME280;3695;53.330;9.876;2022-07-09T13:05:16;142369.25;;;21.18;100.00
7309;BME280;3695;53.330;9.876;2022-07-09T13:07:43;142550.69;;;21.24;100.00
7309;BME280;3695;53.330;9.876;2022-07-09T13:10:09;138714.69;;;20.06;100.00